sensor_id;sensor_type;location;lat;lon;timestamp;temperature;humidity
79049;DHT22;68680;50.764;6.120;2023-04-03T00:02:16;2.80;81.10
79049;DHT22;68680;50.764;6.120;2023-04-03T00:04:42;2.80;82.20
79049;DHT22;68680;50.764;6.120;2023-04-03T00:07:07;2.80;81.80
79049;DHT22;68680;50.764;6.120;2023-04-03T00:09:33;2.70;81.40
79049;DHT22;68680;50.764;6.120;2023-04-03T00:11:59;2.80;82.10
79049;DHT22;68680;50.764;6.120;2023-04-03T00:14:24;2.70;81.20
79049;DHT22;68680;50.764;6.120;2023-04-03T00:16:51;2.70;80.60
79049;DHT22;68680;50.764;6.120;2023-04-03T00:19:17;2.70;80.20
79049;DHT22;68680;50.764;6.120;2023-04-03T00:21:42;2.70;80.50
79049;DHT22;68680;50.764;6.120;2023-04-03T00:24:08;2.80;81.30
79049;DHT22;68680;50.764;6.120;2023-04-03T00:26:34;2.80;81.00
79049;DHT22;68680;50.764;6.120;2023-04-03T00:28:59;2.80;84.20
79049;DHT22;68680;50.764;6.120;2023-04-03T00:31:25;2.80;82.90
79049;DHT22;68680;50.764;6.120;2023-04-03T00:33:52;2.80;83.00
79049;DHT22;68680;50.764;6.120;2023-04-03T00:36:17;2.80;79.60
79049;DHT22;68680;50.764;6.120;2023-04-03T00:38:43;2.80;80.70
79049;DHT22;68680;50.764;6.120;2023-04-03T00:41:09;2.80;81.00
79049;DHT22;68680;50.764;6.120;2023-04-03T00:43:34;2.80;81.20
79049;DHT22;68680;50.764;6.120;2023-04-03T00:46:01;2.80;81.50
79049;DHT22;68680;50.764;6.120;2023-04-03T00:48:27;2.70;83.60
79049;DHT22;68680;50.764;6.120;2023-04-03T00:50:57;2.80;83.80
79049;DHT22;68680;50.764;6.120;2023-04-03T00:53:25;2.80;83.20
79049;DHT22;68680;50.764;6.120;2023-04-03T00:55:55;2.80;81.10
79049;DHT22;68680;50.764;6.120;2023-04-03T00:58:21;2.70;80.70
79049;DHT22;68680;50.764;6.120;2023-04-03T01:00:54;2.70;82.90
79049;DHT22;68680;50.764;6.120;2023-04-03T01:03:22;2.70;82.30
79049;DHT22;68680;50.764;6.120;2023-04-03T01:05:48;2.70;80.90
79049;DHT22;68680;50.764;6.120;2023-04-03T01:08:15;2.70;83.50
79049;DHT22;68680;50.764;6.120;2023-04-03T01:10:41;2.60;85.90
79049;DHT22;68680;50.764;6.120;2023-04-03T01:13:17;2.50;87.80
79049;DHT22;68680;50.764;6.120;2023-04-03T01:15:45;2.50;85.80
79049;DHT22;68680;50.764;6.120;2023-04-03T01:18:10;2.40;86.80
79049;DHT22;68680;50.764;6.120;2023-04-03T01:23:39;2.30;88.70
79049;DHT22;68680;50.764;6.120;2023-04-03T01:26:13;2.20;88.20
79049;DHT22;68680;50.764;6.120;2023-04-03T01:28:39;2.20;88.20
79049;DHT22;68680;50.764;6.120;2023-04-03T01:31:06;2.00;86.50
79049;DHT22;68680;50.764;6.120;2023-04-03T01:33:40;2.00;88.50
79049;DHT22;68680;50.764;6.120;2023-04-03T01:36:06;2.00;88.90
79049;DHT22;68680;50.764;6.120;2023-04-03T01:38:33;1.90;87.20
79049;DHT22;68680;50.764;6.120;2023-04-03T01:40:59;1.90;89.00
79049;DHT22;68680;50.764;6.120;2023-04-03T01:43:24;1.90;89.80
79049;DHT22;68680;50.764;6.120;2023-04-03T01:45:50;1.80;90.20
79049;DHT22;68680;50.764;6.120;2023-04-03T01:48:16;1.70;90.10
79049;DHT22;68680;50.764;6.120;2023-04-03T01:50:43;1.70;89.50
79049;DHT22;68680;50.764;6.120;2023-04-03T01:53:10;1.80;90.70
79049;DHT22;68680;50.764;6.120;2023-04-03T01:55:35;1.70;90.30
79049;DHT22;68680;50.764;6.120;2023-04-03T01:58:01;1.60;90.00
79049;DHT22;68680;50.764;6.120;2023-04-03T02:00:27;1.60;90.80
79049;DHT22;68680;50.764;6.120;2023-04-03T02:02:52;1.50;91.00
79049;DHT22;68680;50.764;6.120;2023-04-03T02:05:18;1.50;90.60
79049;DHT22;68680;50.764;6.120;2023-04-03T02:07:45;1.40;90.00
79049;DHT22;68680;50.764;6.120;2023-04-03T02:10:11;1.40;91.30
79049;DHT22;68680;50.764;6.120;2023-04-03T02:12:37;1.40;90.50
79049;DHT22;68680;50.764;6.120;2023-04-03T02:15:03;1.30;90.80
79049;DHT22;68680;50.764;6.120;2023-04-03T02:17:29;1.30;91.10
79049;DHT22;68680;50.764;6.120;2023-04-03T02:19:55;1.20;90.90
79049;DHT22;68680;50.764;6.120;2023-04-03T02:22:21;1.10;91.40
79049;DHT22;68680;50.764;6.120;2023-04-03T02:24:48;1.20;91.50
79049;DHT22;68680;50.764;6.120;2023-04-03T02:27:13;1.10;91.10
79049;DHT22;68680;50.764;6.120;2023-04-03T02:29:39;1.00;91.60
79049;DHT22;68680;50.764;6.120;2023-04-03T02:32:04;1.00;91.80
79049;DHT22;68680;50.764;6.120;2023-04-03T02:34:30;0.90;91.60
79049;DHT22;68680;50.764;6.120;2023-04-03T02:36:56;0.90;92.00
79049;DHT22;68680;50.764;6.120;2023-04-03T02:39:21;0.90;92.00
79049;DHT22;68680;50.764;6.120;2023-04-03T02:41:48;1.00;91.80
79049;DHT22;68680;50.764;6.120;2023-04-03T02:44:14;0.90;91.60
79049;DHT22;68680;50.764;6.120;2023-04-03T02:46:40;0.80;91.60
79049;DHT22;68680;50.764;6.120;2023-04-03T02:49:05;0.80;91.80
79049;DHT22;68680;50.764;6.120;2023-04-03T02:51:31;0.80;91.70
79049;DHT22;68680;50.764;6.120;2023-04-03T02:53:57;0.80;91.80
79049;DHT22;68680;50.764;6.120;2023-04-03T02:56:23;0.80;91.70
79049;DHT22;68680;50.764;6.120;2023-04-03T02:58:50;0.80;91.90
79049;DHT22;68680;50.764;6.120;2023-04-03T03:01:15;0.80;92.40
79049;DHT22;68680;50.764;6.120;2023-04-03T03:03:41;0.70;92.30
79049;DHT22;68680;50.764;6.120;2023-04-03T03:06:07;0.70;92.40
79049;DHT22;68680;50.764;6.120;2023-04-03T03:08:34;0.60;92.30
79049;DHT22;68680;50.764;6.120;2023-04-03T03:11:00;0.60;92.90
79049;DHT22;68680;50.764;6.120;2023-04-03T03:13:27;0.60;93.10
79049;DHT22;68680;50.764;6.120;2023-04-03T03:15:54;0.60;92.90
79049;DHT22;68680;50.764;6.120;2023-04-03T03:18:19;0.60;93.20
79049;DHT22;68680;50.764;6.120;2023-04-03T03:20:45;0.70;93.20
79049;DHT22;68680;50.764;6.120;2023-04-03T03:23:11;0.70;92.80
79049;DHT22;68680;50.764;6.120;2023-04-03T03:25:37;0.80;92.60
79049;DHT22;68680;50.764;6.120;2023-04-03T03:28:03;0.70;92.20
79049;DHT22;68680;50.764;6.120;2023-04-03T03:30:29;0.60;92.30
79049;DHT22;68680;50.764;6.120;2023-04-03T03:32:56;0.60;92.10
79049;DHT22;68680;50.764;6.120;2023-04-03T03:35:22;0.60;92.30
79049;DHT22;68680;50.764;6.120;2023-04-03T03:37:47;0.60;92.20
79049;DHT22;68680;50.764;6.120;2023-04-03T03:40:13;0.50;92.30
79049;DHT22;68680;50.764;6.120;2023-04-03T03:42:39;0.50;92.40
79049;DHT22;68680;50.764;6.120;2023-04-03T03:45:05;0.50;92.30
79049;DHT22;68680;50.764;6.120;2023-04-03T03:47:31;0.50;92.40
79049;DHT22;68680;50.764;6.120;2023-04-03T03:49:58;0.50;92.80
79049;DHT22;68680;50.764;6.120;2023-04-03T03:52:24;0.40;92.50
79049;DHT22;68680;50.764;6.120;2023-04-03T03:54:50;0.40;92.50
79049;DHT22;68680;50.764;6.120;2023-04-03T03:57:15;0.40;92.50
79049;DHT22;68680;50.764;6.120;2023-04-03T03:59:41;0.30;92.50
79049;DHT22;68680;50.764;6.120;2023-04-03T04:02:07;0.40;92.60
79049;DHT22;68680;50.764;6.120;2023-04-03T04:04:32;0.30;92.60
79049;DHT22;68680;50.764;6.120;2023-04-03T04:06:59;0.30;92.50
79049;DHT22;68680;50.764;6.120;2023-04-03T04:09:25;0.30;92.10
79049;DHT22;68680;50.764;6.120;2023-04-03T04:11:51;0.30;92.40
79049;DHT22;68680;50.764;6.120;2023-04-03T04:14:16;0.40;93.10
79049;DHT22;68680;50.764;6.120;2023-04-03T04:16:42;0.40;93.10
79049;DHT22;68680;50.764;6.120;2023-04-03T04:19:08;0.40;92.90
79049;DHT22;68680;50.764;6.120;2023-04-03T04:21:34;0.30;92.10
79049;DHT22;68680;50.764;6.120;2023-04-03T04:24:01;0.30;92.20
79049;DHT22;68680;50.764;6.120;2023-04-03T04:26:26;0.20;92.20
79049;DHT22;68680;50.764;6.120;2023-04-03T04:28:52;0.20;92.30
79049;DHT22;68680;50.764;6.120;2023-04-03T04:31:18;0.20;92.40
79049;DHT22;68680;50.764;6.120;2023-04-03T04:33:43;0.20;92.60
79049;DHT22;68680;50.764;6.120;2023-04-03T04:36:09;0.30;92.80
79049;DHT22;68680;50.764;6.120;2023-04-03T04:38:34;0.20;92.00
79049;DHT22;68680;50.764;6.120;2023-04-03T04:41:01;0.20;92.20
79049;DHT22;68680;50.764;6.120;2023-04-03T04:43:27;0.10;91.60
79049;DHT22;68680;50.764;6.120;2023-04-03T04:46:00;0.10;91.90
79049;DHT22;68680;50.764;6.120;2023-04-03T04:48:26;0.00;91.80
79049;DHT22;68680;50.764;6.120;2023-04-03T04:50:52;0.10;92.10
79049;DHT22;68680;50.764;6.120;2023-04-03T04:53:17;0.00;92.00
79049;DHT22;68680;50.764;6.120;2023-04-03T04:55:43;0.00;92.70
79049;DHT22;68680;50.764;6.120;2023-04-03T04:58:10;0.00;92.80
79049;DHT22;68680;50.764;6.120;2023-04-03T05:00:36;0.00;92.90
79049;DHT22;68680;50.764;6.120;2023-04-03T05:03:01;0.00;92.70
79049;DHT22;68680;50.764;6.120;2023-04-03T05:05:27;0.00;92.20
79049;DHT22;68680;50.764;6.120;2023-04-03T05:07:53;0.00;91.80
79049;DHT22;68680;50.764;6.120;2023-04-03T05:10:18;0.00;91.90
79049;DHT22;68680;50.764;6.120;2023-04-03T05:12:44;0.00;92.10
79049;DHT22;68680;50.764;6.120;2023-04-03T05:15:11;0.10;92.20
79049;DHT22;68680;50.764;6.120;2023-04-03T05:17:37;0.00;92.10
79049;DHT22;68680;50.764;6.120;2023-04-03T05:20:03;0.10;92.90
79049;DHT22;68680;50.764;6.120;2023-04-03T05:22:29;0.10;92.40
79049;DHT22;68680;50.764;6.120;2023-04-03T05:24:54;0.00;91.70
79049;DHT22;68680;50.764;6.120;2023-04-03T05:27:20;-0.10;91.60
79049;DHT22;68680;50.764;6.120;2023-04-03T05:29:46;-0.10;91.90
79049;DHT22;68680;50.764;6.120;2023-04-03T05:32:13;-0.10;92.30
79049;DHT22;68680;50.764;6.120;2023-04-03T05:34:38;0.00;92.80
79049;DHT22;68680;50.764;6.120;2023-04-03T05:37:04;0.00;92.40
79049;DHT22;68680;50.764;6.120;2023-04-03T05:39:30;0.00;91.90
79049;DHT22;68680;50.764;6.120;2023-04-03T05:41:55;0.00;91.90
79049;DHT22;68680;50.764;6.120;2023-04-03T05:44:21;0.00;91.90
79049;DHT22;68680;50.764;6.120;2023-04-03T05:46:47;0.00;91.90
79049;DHT22;68680;50.764;6.120;2023-04-03T05:49:14;0.00;92.20
79049;DHT22;68680;50.764;6.120;2023-04-03T05:51:39;0.10;92.40
79049;DHT22;68680;50.764;6.120;2023-04-03T05:54:08;0.10;92.90
79049;DHT22;68680;50.764;6.120;2023-04-03T05:56:37;0.20;92.80
79049;DHT22;68680;50.764;6.120;2023-04-03T05:59:03;0.30;92.70
79049;DHT22;68680;50.764;6.120;2023-04-03T06:01:28;0.30;92.30
79049;DHT22;68680;50.764;6.120;2023-04-03T06:03:55;0.30;92.00
79049;DHT22;68680;50.764;6.120;2023-04-03T06:06:22;0.40;92.10
79049;DHT22;68680;50.764;6.120;2023-04-03T06:08:48;0.50;92.20
79049;DHT22;68680;50.764;6.120;2023-04-03T06:11:13;0.50;92.40
79049;DHT22;68680;50.764;6.120;2023-04-03T06:13:39;0.50;92.30
79049;DHT22;68680;50.764;6.120;2023-04-03T06:16:05;0.60;91.90
79049;DHT22;68680;50.764;6.120;2023-04-03T06:18:31;0.60;92.10
79049;DHT22;68680;50.764;6.120;2023-04-03T06:20:56;0.70;92.00
79049;DHT22;68680;50.764;6.120;2023-04-03T06:23:23;0.70;92.00
79049;DHT22;68680;50.764;6.120;2023-04-03T06:25:49;0.70;92.10
79049;DHT22;68680;50.764;6.120;2023-04-03T06:28:15;0.70;92.60
79049;DHT22;68680;50.764;6.120;2023-04-03T06:30:40;0.80;92.30
79049;DHT22;68680;50.764;6.120;2023-04-03T06:33:06;0.80;92.40
79049;DHT22;68680;50.764;6.120;2023-04-03T06:35:31;1.00;92.00
79049;DHT22;68680;50.764;6.120;2023-04-03T06:37:57;1.10;91.10
79049;DHT22;68680;50.764;6.120;2023-04-03T06:40:24;1.30;90.80
79049;DHT22;68680;50.764;6.120;2023-04-03T06:42:50;1.40;89.90
79049;DHT22;68680;50.764;6.120;2023-04-03T06:45:16;1.50;89.30
79049;DHT22;68680;50.764;6.120;2023-04-03T06:47:42;1.70;88.60
79049;DHT22;68680;50.764;6.120;2023-04-03T06:50:09;1.80;86.50
79049;DHT22;68680;50.764;6.120;2023-04-03T06:52:35;1.90;85.90
79049;DHT22;68680;50.764;6.120;2023-04-03T06:55:01;2.10;86.80
79049;DHT22;68680;50.764;6.120;2023-04-03T06:57:28;2.30;86.10
79049;DHT22;68680;50.764;6.120;2023-04-03T06:59:53;2.40;84.30
79049;DHT22;68680;50.764;6.120;2023-04-03T07:02:19;2.50;83.40
79049;DHT22;68680;50.764;6.120;2023-04-03T07:04:44;2.50;82.30
79049;DHT22;68680;50.764;6.120;2023-04-03T07:07:10;2.50;82.20
79049;DHT22;68680;50.764;6.120;2023-04-03T07:09:36;2.60;81.90
79049;DHT22;68680;50.764;6.120;2023-04-03T07:12:01;2.60;81.60
79049;DHT22;68680;50.764;6.120;2023-04-03T07:14:28;2.60;81.70
79049;DHT22;68680;50.764;6.120;2023-04-03T07:16:54;2.70;81.40
79049;DHT22;68680;50.764;6.120;2023-04-03T07:19:20;2.70;80.30
79049;DHT22;68680;50.764;6.120;2023-04-03T07:21:45;2.80;80.10
79049;DHT22;68680;50.764;6.120;2023-04-03T07:24:11;2.80;79.80
79049;DHT22;68680;50.764;6.120;2023-04-03T07:26:37;2.90;80.00
79049;DHT22;68680;50.764;6.120;2023-04-03T07:29:02;3.00;79.70
79049;DHT22;68680;50.764;6.120;2023-04-03T07:31:29;3.10;79.90
79049;DHT22;68680;50.764;6.120;2023-04-03T07:33:55;3.20;78.30
79049;DHT22;68680;50.764;6.120;2023-04-03T07:36:21;3.30;78.90
79049;DHT22;68680;50.764;6.120;2023-04-03T07:38:48;3.30;78.20
79049;DHT22;68680;50.764;6.120;2023-04-03T07:41:14;3.30;77.80
79049;DHT22;68680;50.764;6.120;2023-04-03T07:43:41;3.40;77.50
79049;DHT22;68680;50.764;6.120;2023-04-03T07:46:07;3.50;77.60
79049;DHT22;68680;50.764;6.120;2023-04-03T07:48:34;3.60;76.70
79049;DHT22;68680;50.764;6.120;2023-04-03T07:51:00;3.60;78.10
79049;DHT22;68680;50.764;6.120;2023-04-03T07:53:26;3.60;76.00
79049;DHT22;68680;50.764;6.120;2023-04-03T07:55:51;3.70;76.60
79049;DHT22;68680;50.764;6.120;2023-04-03T07:58:17;3.80;75.50
79049;DHT22;68680;50.764;6.120;2023-04-03T08:00:43;3.80;76.00
79049;DHT22;68680;50.764;6.120;2023-04-03T08:03:10;3.90;74.20
79049;DHT22;68680;50.764;6.120;2023-04-03T08:05:38;3.90;73.90
79049;DHT22;68680;50.764;6.120;2023-04-03T08:08:05;4.00;74.10
79049;DHT22;68680;50.764;6.120;2023-04-03T08:10:32;4.10;73.00
79049;DHT22;68680;50.764;6.120;2023-04-03T08:12:57;4.10;72.30
79049;DHT22;68680;50.764;6.120;2023-04-03T08:15:23;4.20;72.70
79049;DHT22;68680;50.764;6.120;2023-04-03T08:17:49;4.20;71.20
79049;DHT22;68680;50.764;6.120;2023-04-03T08:20:15;4.30;70.80
79049;DHT22;68680;50.764;6.120;2023-04-03T08:22:42;4.30;70.70
79049;DHT22;68680;50.764;6.120;2023-04-03T08:25:08;4.40;71.90
79049;DHT22;68680;50.764;6.120;2023-04-03T08:27:34;4.60;71.20
79049;DHT22;68680;50.764;6.120;2023-04-03T08:30:00;4.60;69.60
79049;DHT22;68680;50.764;6.120;2023-04-03T08:32:25;4.50;70.00
79049;DHT22;68680;50.764;6.120;2023-04-03T08:34:51;4.50;69.40
79049;DHT22;68680;50.764;6.120;2023-04-03T08:37:17;4.60;69.10
79049;DHT22;68680;50.764;6.120;2023-04-03T08:39:44;4.60;68.80
79049;DHT22;68680;50.764;6.120;2023-04-03T08:42:12;4.60;68.70
79049;DHT22;68680;50.764;6.120;2023-04-03T08:44:46;4.70;70.10
79049;DHT22;68680;50.764;6.120;2023-04-03T08:47:18;4.70;69.60
79049;DHT22;68680;50.764;6.120;2023-04-03T08:49:49;4.80;69.80
79049;DHT22;68680;50.764;6.120;2023-04-03T08:52:19;4.90;68.40
79049;DHT22;68680;50.764;6.120;2023-04-03T08:54:51;4.80;69.80
79049;DHT22;68680;50.764;6.120;2023-04-03T08:57:20;4.90;67.90
79049;DHT22;68680;50.764;6.120;2023-04-03T08:59:53;5.00;68.50
79049;DHT22;68680;50.764;6.120;2023-04-03T09:02:23;5.20;68.70
79049;DHT22;68680;50.764;6.120;2023-04-03T09:04:53;5.50;69.70
79049;DHT22;68680;50.764;6.120;2023-04-03T09:07:21;5.60;69.20
79049;DHT22;68680;50.764;6.120;2023-04-03T09:09:54;5.80;69.50
79049;DHT22;68680;50.764;6.120;2023-04-03T09:12:22;5.60;66.70
79049;DHT22;68680;50.764;6.120;2023-04-03T09:14:55;5.70;68.30
79049;DHT22;68680;50.764;6.120;2023-04-03T09:17:31;5.80;67.60
79049;DHT22;68680;50.764;6.120;2023-04-03T09:20:06;5.80;67.00
79049;DHT22;68680;50.764;6.120;2023-04-03T09:22:41;5.80;65.80
79049;DHT22;68680;50.764;6.120;2023-04-03T09:25:11;5.70;66.30
79049;DHT22;68680;50.764;6.120;2023-04-03T09:27:40;5.60;67.00
79049;DHT22;68680;50.764;6.120;2023-04-03T09:30:08;5.60;67.10
79049;DHT22;68680;50.764;6.120;2023-04-03T09:32:38;5.60;66.70
79049;DHT22;68680;50.764;6.120;2023-04-03T09:35:04;5.80;66.30
79049;DHT22;68680;50.764;6.120;2023-04-03T09:37:41;5.90;65.60
79049;DHT22;68680;50.764;6.120;2023-04-03T09:42:55;5.90;63.30
79049;DHT22;68680;50.764;6.120;2023-04-03T09:45:23;5.90;65.70
79049;DHT22;68680;50.764;6.120;2023-04-03T09:47:54;6.00;64.70
79049;DHT22;68680;50.764;6.120;2023-04-03T09:50:30;5.80;62.90
79049;DHT22;68680;50.764;6.120;2023-04-03T09:52:56;5.90;63.90
79049;DHT22;68680;50.764;6.120;2023-04-03T09:55:22;5.80;62.70
79049;DHT22;68680;50.764;6.120;2023-04-03T09:57:50;5.80;64.50
79049;DHT22;68680;50.764;6.120;2023-04-03T10:00:20;5.80;62.40
79049;DHT22;68680;50.764;6.120;2023-04-03T10:02:49;5.80;62.80
79049;DHT22;68680;50.764;6.120;2023-04-03T10:05:27;5.80;64.10
79049;DHT22;68680;50.764;6.120;2023-04-03T10:08:09;5.80;64.30
79049;DHT22;68680;50.764;6.120;2023-04-03T10:10:45;5.70;63.80
79049;DHT22;68680;50.764;6.120;2023-04-03T10:13:14;5.90;63.60
79049;DHT22;68680;50.764;6.120;2023-04-03T10:15:42;5.90;62.30
79049;DHT22;68680;50.764;6.120;2023-04-03T10:18:15;5.90;62.40
79049;DHT22;68680;50.764;6.120;2023-04-03T10:20:54;5.90;62.40
79049;DHT22;68680;50.764;6.120;2023-04-03T10:23:26;5.80;61.80
79049;DHT22;68680;50.764;6.120;2023-04-03T10:26:00;5.90;61.10
79049;DHT22;68680;50.764;6.120;2023-04-03T10:28:38;5.90;59.30
79049;DHT22;68680;50.764;6.120;2023-04-03T10:31:13;6.00;61.00
79049;DHT22;68680;50.764;6.120;2023-04-03T10:33:49;6.00;61.10
79049;DHT22;68680;50.764;6.120;2023-04-03T10:36:24;6.10;61.00
79049;DHT22;68680;50.764;6.120;2023-04-03T10:38:56;6.20;60.50
79049;DHT22;68680;50.764;6.120;2023-04-03T10:41:28;6.30;58.60
79049;DHT22;68680;50.764;6.120;2023-04-03T10:44:07;6.30;59.80
79049;DHT22;68680;50.764;6.120;2023-04-03T10:46:42;6.40;59.80
79049;DHT22;68680;50.764;6.120;2023-04-03T10:49:16;6.40;58.80
79049;DHT22;68680;50.764;6.120;2023-04-03T10:51:51;6.50;56.90
79049;DHT22;68680;50.764;6.120;2023-04-03T10:54:25;6.60;56.60
79049;DHT22;68680;50.764;6.120;2023-04-03T10:56:56;6.70;56.30
79049;DHT22;68680;50.764;6.120;2023-04-03T10:59:28;6.80;54.40
79049;DHT22;68680;50.764;6.120;2023-04-03T11:01:58;6.80;55.60
79049;DHT22;68680;50.764;6.120;2023-04-03T11:04:27;6.80;55.70
79049;DHT22;68680;50.764;6.120;2023-04-03T11:06:57;6.80;55.70
79049;DHT22;68680;50.764;6.120;2023-04-03T11:09:27;6.60;55.30
79049;DHT22;68680;50.764;6.120;2023-04-03T11:11:55;6.60;55.10
79049;DHT22;68680;50.764;6.120;2023-04-03T11:14:29;6.60;55.50
79049;DHT22;68680;50.764;6.120;2023-04-03T11:17:01;6.80;54.80
79049;DHT22;68680;50.764;6.120;2023-04-03T11:19:37;6.80;54.10
79049;DHT22;68680;50.764;6.120;2023-04-03T11:22:08;6.80;53.70
79049;DHT22;68680;50.764;6.120;2023-04-03T11:24:39;6.90;53.10
79049;DHT22;68680;50.764;6.120;2023-04-03T11:27:08;7.00;54.30
79049;DHT22;68680;50.764;6.120;2023-04-03T11:29:41;7.20;53.50
79049;DHT22;68680;50.764;6.120;2023-04-03T11:32:16;7.20;53.80
79049;DHT22;68680;50.764;6.120;2023-04-03T11:34:54;7.20;53.10
79049;DHT22;68680;50.764;6.120;2023-04-03T11:37:25;7.20;52.50
79049;DHT22;68680;50.764;6.120;2023-04-03T11:39:56;7.00;52.60
79049;DHT22;68680;50.764;6.120;2023-04-03T11:42:29;7.00;50.60
79049;DHT22;68680;50.764;6.120;2023-04-03T11:45:22;7.10;51.40
79049;DHT22;68680;50.764;6.120;2023-04-03T11:47:59;7.30;51.20
79049;DHT22;68680;50.764;6.120;2023-04-03T11:50:39;7.30;51.80
79049;DHT22;68680;50.764;6.120;2023-04-03T11:53:25;7.40;51.80
79049;DHT22;68680;50.764;6.120;2023-04-03T11:55:59;7.50;51.50
79049;DHT22;68680;50.764;6.120;2023-04-03T11:58:27;7.60;48.90
79049;DHT22;68680;50.764;6.120;2023-04-03T12:00:57;7.60;48.40
79049;DHT22;68680;50.764;6.120;2023-04-03T12:09:29;7.70;48.80
79049;DHT22;68680;50.764;6.120;2023-04-03T12:11:59;7.90;50.60
79049;DHT22;68680;50.764;6.120;2023-04-03T12:14:26;8.00;48.00
79049;DHT22;68680;50.764;6.120;2023-04-03T12:16:55;8.20;49.00
79049;DHT22;68680;50.764;6.120;2023-04-03T12:19:35;8.40;51.60
79049;DHT22;68680;50.764;6.120;2023-04-03T12:22:06;8.50;47.50
79049;DHT22;68680;50.764;6.120;2023-04-03T12:24:34;8.70;47.90
79049;DHT22;68680;50.764;6.120;2023-04-03T12:27:03;8.80;46.40
79049;DHT22;68680;50.764;6.120;2023-04-03T12:29:35;9.30;46.10
79049;DHT22;68680;50.764;6.120;2023-04-03T12:32:11;9.90;43.90
79049;DHT22;68680;50.764;6.120;2023-04-03T12:34:55;10.60;42.40
79049;DHT22;68680;50.764;6.120;2023-04-03T12:37:34;10.70;39.30
79049;DHT22;68680;50.764;6.120;2023-04-03T12:40:17;11.00;39.20
79049;DHT22;68680;50.764;6.120;2023-04-03T12:42:58;11.10;35.70
79049;DHT22;68680;50.764;6.120;2023-04-03T12:45:37;11.70;35.90
79049;DHT22;68680;50.764;6.120;2023-04-03T12:48:09;11.70;34.60
79049;DHT22;68680;50.764;6.120;2023-04-03T12:50:39;12.40;37.10
79049;DHT22;68680;50.764;6.120;2023-04-03T12:53:10;12.60;34.50
79049;DHT22;68680;50.764;6.120;2023-04-03T12:55:39;12.70;34.20
79049;DHT22;68680;50.764;6.120;2023-04-03T12:58:14;13.10;35.20
79049;DHT22;68680;50.764;6.120;2023-04-03T13:00:41;13.40;34.40
79049;DHT22;68680;50.764;6.120;2023-04-03T13:03:14;13.40;33.70
79049;DHT22;68680;50.764;6.120;2023-04-03T13:05:49;13.60;32.80
79049;DHT22;68680;50.764;6.120;2023-04-03T13:08:22;14.00;33.00
79049;DHT22;68680;50.764;6.120;2023-04-03T13:10:50;14.40;31.80
79049;DHT22;68680;50.764;6.120;2023-04-03T13:13:18;14.50;32.00
79049;DHT22;68680;50.764;6.120;2023-04-03T13:15:44;14.60;32.80
79049;DHT22;68680;50.764;6.120;2023-04-03T13:18:23;14.90;30.60
79049;DHT22;68680;50.764;6.120;2023-04-03T13:20:50;15.00;30.90
79049;DHT22;68680;50.764;6.120;2023-04-03T13:23:16;15.60;32.80
79049;DHT22;68680;50.764;6.120;2023-04-03T13:25:44;16.30;31.00
79049;DHT22;68680;50.764;6.120;2023-04-03T13:28:11;16.00;28.50
79049;DHT22;68680;50.764;6.120;2023-04-03T13:30:41;15.90;29.40
79049;DHT22;68680;50.764;6.120;2023-04-03T13:33:21;15.60;28.50
79049;DHT22;68680;50.764;6.120;2023-04-03T13:35:54;15.60;29.80
79049;DHT22;68680;50.764;6.120;2023-04-03T13:38:23;15.40;29.10
79049;DHT22;68680;50.764;6.120;2023-04-03T13:40:51;15.60;27.90
79049;DHT22;68680;50.764;6.120;2023-04-03T13:43:19;15.50;26.00
79049;DHT22;68680;50.764;6.120;2023-04-03T13:45:56;15.20;26.80
79049;DHT22;68680;50.764;6.120;2023-04-03T13:48:26;15.10;27.50
79049;DHT22;68680;50.764;6.120;2023-04-03T13:51:00;15.30;27.90
79049;DHT22;68680;50.764;6.120;2023-04-03T13:53:29;15.40;27.20
79049;DHT22;68680;50.764;6.120;2023-04-03T13:55:58;16.20;28.80
79049;DHT22;68680;50.764;6.120;2023-04-03T13:58:29;16.50;26.70
79049;DHT22;68680;50.764;6.120;2023-04-03T14:01:00;16.70;25.20
79049;DHT22;68680;50.764;6.120;2023-04-03T14:03:37;15.80;25.50
79049;DHT22;68680;50.764;6.120;2023-04-03T14:06:08;16.10;27.30
79049;DHT22;68680;50.764;6.120;2023-04-03T14:08:36;16.50;26.70
79049;DHT22;68680;50.764;6.120;2023-04-03T14:11:02;16.50;26.30
79049;DHT22;68680;50.764;6.120;2023-04-03T14:13:29;16.70;26.20
79049;DHT22;68680;50.764;6.120;2023-04-03T14:15:56;17.30;25.60
79049;DHT22;68680;50.764;6.120;2023-04-03T14:18:22;17.20;25.60
79049;DHT22;68680;50.764;6.120;2023-04-03T14:20:49;17.10;26.90
79049;DHT22;68680;50.764;6.120;2023-04-03T14:23:15;16.90;27.80
79049;DHT22;68680;50.764;6.120;2023-04-03T14:25:41;17.10;25.00
79049;DHT22;68680;50.764;6.120;2023-04-03T14:28:12;16.70;25.50
79049;DHT22;68680;50.764;6.120;2023-04-03T14:30:40;16.30;26.00
79049;DHT22;68680;50.764;6.120;2023-04-03T14:33:06;15.80;26.60
79049;DHT22;68680;50.764;6.120;2023-04-03T14:35:32;15.20;27.40
79049;DHT22;68680;50.764;6.120;2023-04-03T14:37:59;14.80;27.80
79049;DHT22;68680;50.764;6.120;2023-04-03T14:40:25;14.30;27.30
79049;DHT22;68680;50.764;6.120;2023-04-03T14:42:52;13.90;27.30
79049;DHT22;68680;50.764;6.120;2023-04-03T14:45:19;13.40;29.50
79049;DHT22;68680;50.764;6.120;2023-04-03T14:47:45;13.30;29.70
79049;DHT22;68680;50.764;6.120;2023-04-03T14:50:14;13.10;29.50
79049;DHT22;68680;50.764;6.120;2023-04-03T14:52:41;12.80;29.70
79049;DHT22;68680;50.764;6.120;2023-04-03T14:55:09;12.50;30.00
79049;DHT22;68680;50.764;6.120;2023-04-03T14:57:44;12.40;32.50
79049;DHT22;68680;50.764;6.120;2023-04-03T15:00:12;12.40;31.90
79049;DHT22;68680;50.764;6.120;2023-04-03T15:02:39;12.30;29.80
79049;DHT22;68680;50.764;6.120;2023-04-03T15:05:06;12.30;30.30
79049;DHT22;68680;50.764;6.120;2023-04-03T15:07:34;12.40;31.10
79049;DHT22;68680;50.764;6.120;2023-04-03T15:10:02;12.30;31.30
79049;DHT22;68680;50.764;6.120;2023-04-03T15:12:40;12.10;31.20
79049;DHT22;68680;50.764;6.120;2023-04-03T15:15:06;12.00;32.00
79049;DHT22;68680;50.764;6.120;2023-04-03T15:17:32;11.90;33.00
79049;DHT22;68680;50.764;6.120;2023-04-03T15:19:59;11.90;31.00
79049;DHT22;68680;50.764;6.120;2023-04-03T15:22:25;11.80;32.30
79049;DHT22;68680;50.764;6.120;2023-04-03T15:24:50;11.60;32.50
79049;DHT22;68680;50.764;6.120;2023-04-03T15:27:16;11.50;32.70
79049;DHT22;68680;50.764;6.120;2023-04-03T15:29:43;11.30;33.70
79049;DHT22;68680;50.764;6.120;2023-04-03T15:32:10;11.40;33.80
79049;DHT22;68680;50.764;6.120;2023-04-03T15:34:36;11.50;32.30
79049;DHT22;68680;50.764;6.120;2023-04-03T15:37:02;11.30;33.00
79049;DHT22;68680;50.764;6.120;2023-04-03T15:39:28;11.10;32.50
79049;DHT22;68680;50.764;6.120;2023-04-03T15:41:54;10.70;33.30
79049;DHT22;68680;50.764;6.120;2023-04-03T15:44:20;10.40;34.80
79049;DHT22;68680;50.764;6.120;2023-04-03T15:46:47;10.20;35.00
79049;DHT22;68680;50.764;6.120;2023-04-03T15:49:14;10.30;35.40
79049;DHT22;68680;50.764;6.120;2023-04-03T15:51:40;10.30;36.70
79049;DHT22;68680;50.764;6.120;2023-04-03T15:54:06;10.30;34.90
79049;DHT22;68680;50.764;6.120;2023-04-03T15:56:31;10.40;35.50
79049;DHT22;68680;50.764;6.120;2023-04-03T15:58:57;10.90;32.80
79049;DHT22;68680;50.764;6.120;2023-04-03T16:01:23;11.20;32.50